INFORMAÇÕES METEOROLÓGICAS
METAR FOR SBSV
ADDS - METARS form results

(1407 UTC 20 April 2018)
Data provider http://aviationweather.gov/adds/metars/
 
METAR text: SBSV 201400Z 13012KT 4000 -RA SCT012 BKN013 FEW020TCU OVC060 25 /23 Q1017
Conditions at: SBSV (SALVADOR/DOIS JU, BR) observed 1400 UTC 20 April 2018
Temperature: missing
Dewpoint: missing
Pressure (altimeter): 30.03 inches Hg (1017.0 mb)
Winds: from the SE (130 degrees) at 14 MPH (12 knots; 6.2 m/s)
Visibility: 2.49 miles (4.01 km)
Ceiling: 1300 feet AGL
Clouds: scattered clouds at 1200 feet AGL
broken clouds at 1300 feet AGL
few clouds at 2000 feet AGL
overcast cloud deck at 6000 feet AGL
Weather: -RA  (light rain)

METAR text: SBSV 201340Z 13013KT 5000 -RA SCT010 BKN015 FEW020TCU OVC060 25 /23 Q1017 RERA
Conditions at: SBSV (SALVADOR/DOIS JU, BR) observed 1340 UTC 20 April 2018
Temperature: missing
Dewpoint: missing
Pressure (altimeter): 30.03 inches Hg (1017.0 mb)
Winds: from the SE (130 degrees) at 15 MPH (13 knots; 6.8 m/s)
Visibility: 3 miles (5 km)
Ceiling: 1500 feet AGL
Clouds: scattered clouds at 1000 feet AGL
broken clouds at 1500 feet AGL
few clouds at 2000 feet AGL
overcast cloud deck at 6000 feet AGL
Weather: -RA  (light rain)

Forecast for: SBSV (SALVADOR/DOIS JU, BR)
Text: TAF SBSV 201000Z 2012/2112 16010KT 7000 BKN015 TX28/2015Z TN24/2108Z
Forecast period: 1200 to 1700 UTC 20 April 2018
Forecast type: FROM: standard forecast or significant change
Winds: from the SSE (160 degrees) at 12 MPH (10 knots; 5.2 m/s)
Visibility: 4 miles (7 km)
Ceiling: 1500 feet AGL
Clouds: broken clouds at 1500 feet AGL
Weather: no significant weather forecast for this period
Forecast for: SBSV (SALVADOR/DOIS JU, BR)
Text: TAF SBSV 201000Z 2012/2112 16010KT 7000 BKN015 TX28/2015Z TN24/2108Z
Forecast period: 1200 to 1700 UTC 20 April 2018
Forecast type: FROM: standard forecast or significant change
Winds: from the SSE (160 degrees) at 12 MPH (10 knots; 5.2 m/s)
Visibility: 4 miles (7 km)
Ceiling: 1500 feet AGL
Clouds: broken clouds at 1500 feet AGL
Weather: no significant weather forecast for this period
Forecast for: SBSV (SALVADOR/DOIS JU, BR)
Text: TAF SBSV 201000Z 2012/2112 16010KT 7000 BKN015 TX28/2015Z TN24/2108Z
Forecast period: 1200 to 1800 UTC 20 April 2018
Forecast type: TEMPORARY: The following changes expected for less than half the time period
Visibility: 2.49 miles (4.01 km)
Ceiling: 1200 feet AGL
Clouds: broken clouds at 1200 feet AGL
few clouds at 2200 feet AGL
Weather: RA  (rain)
Forecast for: SBSV (SALVADOR/DOIS JU, BR)
Text: TAF SBSV 201000Z 2012/2112 16010KT 7000 BKN015 TX28/2015Z TN24/2108Z
Forecast period: 1200 to 1800 UTC 20 April 2018
Forecast type: TEMPORARY: The following changes expected for less than half the time period
Visibility: 2.49 miles (4.01 km)
Ceiling: 1200 feet AGL
Clouds: broken clouds at 1200 feet AGL
few clouds at 2200 feet AGL
Weather: RA  (rain)
Forecast for: SBSV (SALVADOR/DOIS JU, BR)
Text: TAF SBSV 201000Z 2012/2112 16010KT 7000 BKN015 TX28/2015Z TN24/2108Z
Forecast period: 1700 UTC 20 April 2018 to 1200 UTC 21 April 2018
Forecast type: BECOMING: Conditions expected to become as follows by 1900 UTC 20 April 2018
Winds: from the SSE (160 degrees) at 12 MPH (10 knots; 5.2 m/s)
Visibility: 4 miles (7 km)
Clouds: scattered clouds at 1500 feet AGL
scattered clouds at 2500 feet AGL
Weather: PE  (ice pellets)
Forecast for: SBSV (SALVADOR/DOIS JU, BR)
Text: TAF SBSV 201000Z 2012/2112 16010KT 7000 BKN015 TX28/2015Z TN24/2108Z
Forecast period: 1700 UTC 20 April 2018 to 1200 UTC 21 April 2018
Forecast type: BECOMING: Conditions expected to become as follows by 1900 UTC 20 April 2018
Winds: from the SSE (160 degrees) at 12 MPH (10 knots; 5.2 m/s)
Visibility: 4 miles (7 km)
Clouds: scattered clouds at 1500 feet AGL
scattered clouds at 2500 feet AGL
Weather: PE  (ice pellets)

 MAPA DO AEROPORTO

 INFORMAÇÕES DA PISTA
Pista 10 Tamanho da pista 9859 ft Largura da pista 148 ft
Elevação da pista 30 ft Ranhura da pista 0 ft Proa da pista 78
Pista 28 Tamanho da pista 9859 ft Largura da pista 148 ft
Elevação da pista 64 ft Ranhura da pista 0 ft Proa da pista 258
Pista 17 Tamanho da pista 4987 ft Largura da pista 148 ft
Elevação da pista 28 ft Ranhura da pista 0 ft Proa da pista 143
Pista 35 Tamanho da pista 4987 ft Largura da pista 148 ft
Elevação da pista 34 ft Ranhura da pista 0 ft Proa da pista 323

 FREQUÊNCIAS DO AEROPORTO
Tipo APP Nome SALVADOR C Frequência 120.8 MHZ
Tipo ATIS Nome SALVADOR A Frequência 127.75 MHZ
Tipo CLD Nome SALVADOR T Frequência 121.1 MHZ
Tipo GND Nome GND Frequência 121.9 MHZ
Tipo OPS Nome SALVADOR O Frequência 122.5 MHZ
Tipo TWR Nome SALVADOR T Frequência 118.3 MHZ

 AUXÍLIOS DE NAVEGAÇÃO PRÓXIMOS AO AEROPORTO
Tipo NDB Nome Alagoinhas Frequência 310 KHZ
Tipo NDB Nome Cimbra Frequência 220 KHZ
Tipo NDB Nome Ipitanga Frequência 240 KHZ
Tipo VOR-DME Nome Salvador Frequência 116500 KHZ
Tipo NDB Nome Salvador Frequência 275 KHZ



Powered by Mercosul Lnhas Aereas